createdAt,value
2024-01-22T00:00:19.130Z,31.43
2024-01-22T00:02:20.769Z,31.28
2024-01-22T00:04:22.438Z,31.51
2024-01-22T00:06:24.150Z,31.35
2024-01-22T00:08:25.853Z,31.42
2024-01-22T00:10:27.443Z,31.27
2024-01-22T00:12:29.171Z,31.33
2024-01-22T00:14:30.748Z,31.57
2024-01-22T00:16:32.896Z,31.57
2024-01-22T00:18:34.783Z,31.60
2024-01-22T00:20:36.683Z,31.46
2024-01-22T00:22:38.292Z,31.40
2024-01-22T00:24:41.105Z,31.51
2024-01-22T00:26:42.872Z,31.52
2024-01-22T00:28:44.569Z,31.67
2024-01-22T00:30:46.325Z,31.62
2024-01-22T00:32:48.255Z,31.54
2024-01-22T00:34:50.047Z,31.60
2024-01-22T00:36:51.746Z,31.87
2024-01-22T00:38:53.601Z,31.71
2024-01-22T00:40:55.381Z,31.86
2024-01-22T00:42:56.991Z,31.68
2024-01-22T00:44:58.623Z,31.81
2024-01-22T00:47:00.305Z,31.88
2024-01-22T00:49:01.982Z,31.88
2024-01-22T00:51:04.030Z,31.79
2024-01-22T00:53:05.622Z,31.53
2024-01-22T00:55:07.649Z,31.70
2024-01-22T00:57:09.406Z,31.88
2024-01-22T00:59:11.083Z,31.65
2024-01-22T01:01:13.074Z,31.80
2024-01-22T01:03:14.865Z,31.67
2024-01-22T01:05:17.204Z,31.75
2024-01-22T01:07:18.943Z,31.80
2024-01-22T01:09:20.579Z,31.75
2024-01-22T01:11:22.209Z,31.90
2024-01-22T01:13:23.963Z,31.86
2024-01-22T01:15:25.660Z,31.98
2024-01-22T01:17:27.571Z,31.67
2024-01-22T01:19:29.298Z,31.72
2024-01-22T01:21:30.954Z,31.92
2024-01-22T01:23:34.356Z,31.88
2024-01-22T01:25:37.343Z,31.66
2024-01-22T01:27:38.951Z,31.91
2024-01-22T01:29:40.636Z,31.78
2024-01-22T01:31:42.479Z,32.06
2024-01-22T01:33:44.370Z,31.77
2024-01-22T01:35:47.164Z,31.99
2024-01-22T01:37:48.834Z,31.77
2024-01-22T01:39:50.418Z,31.74
2024-01-22T01:41:52.563Z,31.91
2024-01-22T01:43:54.211Z,31.70
2024-01-22T01:45:55.942Z,31.86
2024-01-22T01:47:57.708Z,31.91
2024-01-22T01:49:59.399Z,32.10
2024-01-22T01:52:01.570Z,31.99
2024-01-22T01:54:03.606Z,32.11
2024-01-22T01:56:05.869Z,32.00
2024-01-22T01:58:07.662Z,31.83
2024-01-22T02:00:13.396Z,32.06
2024-01-22T02:02:15.564Z,32.06
2024-01-22T02:04:17.233Z,32.19
2024-01-22T02:06:18.966Z,32.01
2024-01-22T02:08:20.617Z,32.09
2024-01-22T02:10:22.207Z,32.07
2024-01-22T02:12:24.042Z,32.17
2024-01-22T02:14:25.619Z,32.10
2024-01-22T02:16:27.210Z,32.11
2024-01-22T02:18:28.946Z,32.26
2024-01-22T02:20:30.883Z,32.34
2024-01-22T02:22:32.455Z,32.33
2024-01-22T02:24:34.444Z,32.07
2024-01-22T02:26:37.569Z,32.24
2024-01-22T02:28:39.297Z,32.20
2024-01-22T02:30:40.867Z,32.07
2024-01-22T02:32:42.476Z,32.18
2024-01-22T02:34:44.535Z,32.06
2024-01-22T02:36:46.936Z,32.34
2024-01-22T02:38:48.544Z,32.14
2024-01-22T02:40:50.159Z,32.34
2024-01-22T02:42:52.102Z,32.00
2024-01-22T02:44:53.923Z,32.16
2024-01-22T02:46:55.896Z,32.12
2024-01-22T02:48:57.812Z,31.96
2024-01-22T02:50:59.627Z,31.91
2024-01-22T02:53:01.312Z,32.12
2024-01-22T02:55:03.008Z,32.10
2024-01-22T02:57:04.944Z,32.19
2024-01-22T02:59:08.062Z,32.22
2024-01-22T03:01:09.691Z,32.31
2024-01-22T03:03:11.319Z,32.23
2024-01-22T03:05:12.997Z,32.23
2024-01-22T03:07:14.749Z,32.03
2024-01-22T03:09:16.489Z,32.13
2024-01-22T03:11:18.322Z,32.05
2024-01-22T03:13:19.943Z,31.96
2024-01-22T03:15:21.596Z,32.24
2024-01-22T03:17:23.298Z,32.25
2024-01-22T03:19:25.003Z,32.18
2024-01-22T03:21:26.612Z,32.25
2024-01-22T03:23:28.517Z,32.10
2024-01-22T03:25:30.087Z,32.37
2024-01-22T03:27:31.746Z,32.11
2024-01-22T03:29:33.469Z,32.12
2024-01-22T03:31:38.847Z,32.26
2024-01-22T03:33:40.546Z,32.16
2024-01-22T03:35:42.164Z,32.16
2024-01-22T03:37:43.818Z,32.21
2024-01-22T03:39:45.443Z,31.94
2024-01-22T03:41:47.164Z,32.12
2024-01-22T03:43:48.712Z,32.22
2024-01-22T03:45:50.215Z,32.10
2024-01-22T03:47:52.340Z,32.17
2024-01-22T03:49:54.210Z,32.21
2024-01-22T03:51:55.859Z,32.29
2024-01-22T03:53:57.598Z,32.09
2024-01-22T03:55:59.358Z,32.09
2024-01-22T03:58:00.995Z,32.23
2024-01-22T04:00:03.516Z,32.33
2024-01-22T04:02:05.686Z,31.91
2024-01-22T04:04:07.344Z,32.14
2024-01-22T04:06:09.040Z,32.29
2024-01-22T04:08:10.679Z,32.04
2024-01-22T04:10:12.304Z,32.29
2024-01-22T04:12:14.103Z,32.14
2024-01-22T04:14:15.784Z,32.16
2024-01-22T04:16:17.393Z,32.03
2024-01-22T04:18:19.181Z,32.13
2024-01-22T04:20:20.904Z,32.08
2024-01-22T04:22:22.611Z,32.18
2024-01-22T04:24:24.205Z,32.23
2024-01-22T04:26:25.856Z,32.20
2024-01-22T04:28:27.427Z,32.23
2024-01-22T04:30:29.119Z,32.27
2024-01-22T04:32:30.978Z,32.22
2024-01-22T04:34:33.152Z,32.29
2024-01-22T04:36:34.853Z,32.33
2024-01-22T04:38:36.504Z,32.27
2024-01-22T04:40:38.092Z,32.02
2024-01-22T04:42:41.585Z,32.17
2024-01-22T04:44:43.317Z,32.18
2024-01-22T04:46:44.914Z,32.19
2024-01-22T04:48:47.384Z,32.30
2024-01-22T04:50:49.074Z,32.41
2024-01-22T04:52:50.752Z,32.29
2024-01-22T04:54:55.136Z,32.34
2024-01-22T04:57:00.817Z,32.39
2024-01-22T04:59:02.531Z,32.50
2024-01-22T05:01:04.508Z,32.35
2024-01-22T05:03:06.766Z,32.41
2024-01-22T05:05:08.587Z,32.40
2024-01-22T05:07:10.151Z,32.42
2024-01-22T05:09:12.134Z,32.30
2024-01-22T05:11:13.868Z,32.34
2024-01-22T05:13:15.473Z,32.27
2024-01-22T05:15:17.187Z,32.41
2024-01-22T05:17:18.950Z,32.57
2024-01-22T05:19:20.811Z,32.49
2024-01-22T05:21:23.165Z,32.51
2024-01-22T05:23:25.072Z,32.54
2024-01-22T05:25:27.132Z,32.29
2024-01-22T05:27:30.487Z,32.52
2024-01-22T05:29:32.040Z,32.44
2024-01-22T05:31:33.653Z,32.33
2024-01-22T05:33:35.559Z,32.43
2024-01-22T05:35:37.408Z,32.30
2024-01-22T05:37:39.088Z,32.41
2024-01-22T05:39:40.796Z,32.53
2024-01-22T05:41:43.113Z,32.52
2024-01-22T05:43:44.878Z,32.43
2024-01-22T05:45:46.459Z,32.47
2024-01-22T05:47:48.185Z,32.38
2024-01-22T05:49:50.221Z,32.53
2024-01-22T05:51:51.888Z,32.52
2024-01-22T05:53:53.449Z,32.58
2024-01-22T05:55:55.219Z,32.67
2024-01-22T05:57:56.912Z,32.48
2024-01-22T05:59:58.542Z,32.39
2024-01-22T06:02:00.273Z,32.68
2024-01-22T06:04:02.090Z,32.39
2024-01-22T06:06:03.860Z,32.80
2024-01-22T06:08:06.811Z,32.60
2024-01-22T06:10:09.788Z,32.65
2024-01-22T06:12:11.645Z,32.55
2024-01-22T06:14:13.218Z,32.60
2024-01-22T06:16:15.803Z,32.50
2024-01-22T06:18:17.659Z,32.49
2024-01-22T06:20:19.257Z,32.55
2024-01-22T06:22:20.882Z,32.58
2024-01-22T06:24:22.602Z,32.89
2024-01-22T06:26:25.006Z,32.49
2024-01-22T06:28:27.483Z,32.90
2024-01-22T06:30:29.200Z,32.75
2024-01-22T06:32:31.147Z,32.72
2024-01-22T06:34:33.055Z,32.83
2024-01-22T06:36:34.858Z,32.79
2024-01-22T06:38:36.606Z,33.05
2024-01-22T06:40:38.211Z,32.62
2024-01-22T06:42:40.139Z,32.71
2024-01-22T06:44:42.015Z,32.83
2024-01-22T06:46:43.630Z,32.68
2024-01-22T06:48:45.575Z,32.83
2024-01-22T06:50:47.691Z,32.81
2024-01-22T06:52:49.663Z,32.99
2024-01-22T06:54:51.247Z,32.75
2024-01-22T06:56:52.910Z,32.88
2024-01-22T06:58:54.565Z,32.93
2024-01-22T07:00:56.178Z,32.86
2024-01-22T07:03:00.027Z,32.99
2024-01-22T07:05:02.049Z,32.74
2024-01-22T07:07:04.521Z,32.86
2024-01-22T07:09:07.412Z,32.87
2024-01-22T07:11:09.005Z,32.96
2024-01-22T07:13:10.607Z,33.16
2024-01-22T07:15:14.107Z,33.15
2024-01-22T07:17:17.748Z,33.13
2024-01-22T07:19:19.452Z,33.12
2024-01-22T07:21:21.359Z,33.15
2024-01-22T07:23:23.142Z,33.04
2024-01-22T07:25:25.361Z,33.10
2024-01-22T07:27:27.067Z,32.85
2024-01-22T07:29:28.647Z,33.21
2024-01-22T07:31:30.354Z,33.04
2024-01-22T07:33:32.088Z,33.07
2024-01-22T07:35:34.505Z,33.27
2024-01-22T07:37:42.288Z,33.28
2024-01-22T07:39:43.970Z,33.18
2024-01-22T07:41:46.009Z,33.34
2024-01-22T07:43:48.569Z,33.20
2024-01-22T07:45:50.205Z,33.32
2024-01-22T07:47:51.921Z,32.96
2024-01-22T07:49:54.219Z,32.98
2024-01-22T07:51:55.917Z,33.17
2024-01-22T07:53:57.668Z,33.22
2024-01-22T07:55:59.500Z,33.27
2024-01-22T07:58:01.156Z,33.23
2024-01-22T08:00:04.287Z,33.44
2024-01-22T08:02:06.718Z,33.46
2024-01-22T08:04:08.272Z,33.45
2024-01-22T08:06:09.999Z,33.42
2024-01-22T08:08:11.646Z,33.44
2024-01-22T08:10:14.707Z,33.38
2024-01-22T08:12:16.650Z,33.33
2024-01-22T08:14:18.588Z,33.57
2024-01-22T08:16:20.398Z,33.64
2024-01-22T08:18:22.070Z,33.54
2024-01-22T08:20:23.742Z,33.68
2024-01-22T08:22:25.682Z,33.67
2024-01-22T08:24:27.798Z,33.80
2024-01-22T08:26:29.476Z,33.72
2024-01-22T08:28:31.069Z,33.68
2024-01-22T08:30:33.591Z,33.58
2024-01-22T08:32:35.224Z,33.57
2024-01-22T08:34:39.419Z,33.47
2024-01-22T08:36:41.682Z,33.54
2024-01-22T08:38:43.519Z,33.38
2024-01-22T08:40:45.656Z,33.40
2024-01-22T08:42:47.322Z,33.54
2024-01-22T08:44:49.011Z,33.49
2024-01-22T08:46:50.740Z,33.59
2024-01-22T08:48:52.432Z,33.35
2024-01-22T08:50:54.165Z,33.49
2024-01-22T08:52:55.886Z,33.55
2024-01-22T08:54:57.444Z,33.39
2024-01-22T08:56:59.139Z,33.44
2024-01-22T08:59:00.818Z,33.37
2024-01-22T09:01:06.297Z,33.39
2024-01-22T09:03:08.743Z,33.39
2024-01-22T09:05:11.198Z,33.59
2024-01-22T09:07:12.837Z,33.46
2024-01-22T09:09:14.505Z,33.37
2024-01-22T09:11:16.110Z,33.38
2024-01-22T09:13:17.710Z,33.51
2024-01-22T09:15:19.834Z,33.45
2024-01-22T09:17:21.903Z,33.46
2024-01-22T09:19:23.621Z,33.48
2024-01-22T09:21:25.955Z,33.40
2024-01-22T09:23:28.067Z,33.43
2024-01-22T09:25:29.933Z,33.41
2024-01-22T09:27:31.644Z,33.61
2024-01-22T09:29:33.334Z,33.43
2024-01-22T09:31:35.620Z,33.47
2024-01-22T09:33:37.338Z,33.51
2024-01-22T09:35:44.878Z,33.43
2024-01-22T09:37:46.982Z,33.58
2024-01-22T09:39:50.400Z,33.35
2024-01-22T09:41:53.000Z,33.71
2024-01-22T09:43:55.524Z,33.48
2024-01-22T09:45:58.135Z,33.50
2024-01-22T09:48:03.520Z,33.46
2024-01-22T09:50:06.810Z,33.58
2024-01-22T09:52:10.019Z,33.51
2024-01-22T09:54:14.367Z,33.35
2024-01-22T09:56:17.940Z,33.41
2024-01-22T09:58:27.473Z,33.59
2024-01-22T10:00:30.717Z,33.69
2024-01-22T10:02:32.948Z,33.53
2024-01-22T10:04:34.639Z,33.56
2024-01-22T10:06:37.718Z,33.48
2024-01-22T10:08:39.523Z,33.44
2024-01-22T10:10:41.200Z,33.62
2024-01-22T10:13:05.048Z,33.42
2024-01-22T10:15:14.169Z,33.57
2024-01-22T10:17:19.801Z,33.55
2024-01-22T10:19:26.959Z,33.58
2024-01-22T10:21:28.739Z,33.58
2024-01-22T10:23:30.383Z,33.52
2024-01-22T10:25:32.661Z,33.56
2024-01-22T10:27:34.286Z,33.42
2024-01-22T10:29:35.948Z,33.47
2024-01-22T10:32:00.244Z,33.49
2024-01-22T10:34:05.342Z,33.28
2024-01-22T10:36:25.363Z,33.28
2024-01-22T10:38:27.027Z,33.55
2024-01-22T10:40:31.924Z,33.36
2024-01-22T10:42:33.572Z,33.43
2024-01-22T10:44:39.727Z,33.45
2024-01-22T10:46:41.831Z,33.59
2024-01-22T10:48:46.931Z,33.47
2024-01-22T10:50:50.794Z,33.51
2024-01-22T10:52:53.619Z,33.56
2024-01-22T10:54:55.375Z,33.41
2024-01-22T10:57:12.361Z,33.43
2024-01-22T10:59:18.254Z,33.33
2024-01-22T11:01:23.783Z,33.43
2024-01-22T11:03:28.956Z,33.49
2024-01-22T11:05:34.698Z,33.22
2024-01-22T11:07:39.564Z,33.59
2024-01-22T11:09:41.800Z,33.44
2024-01-22T11:11:44.206Z,33.48
2024-01-22T11:13:49.868Z,33.33
2024-01-22T11:15:51.778Z,33.32
2024-01-22T11:17:53.620Z,33.28
2024-01-22T11:20:14.869Z,33.19
2024-01-22T11:22:24.597Z,33.16
2024-01-22T11:24:26.614Z,33.13
2024-01-22T11:26:28.464Z,33.37
2024-01-22T11:28:30.346Z,33.22
2024-01-22T11:30:42.726Z,33.31
2024-01-22T11:34:51.180Z,33.31
2024-01-22T11:36:56.776Z,33.63
2024-01-22T11:38:58.611Z,33.18
2024-01-22T11:41:00.229Z,33.29
2024-01-22T11:43:02.268Z,33.06
2024-01-22T11:45:14.688Z,33.04
2024-01-22T11:47:17.667Z,32.96
2024-01-22T11:49:19.561Z,33.17
2024-01-22T11:51:26.342Z,33.12
2024-01-22T11:53:29.676Z,33.16
2024-01-22T11:55:31.873Z,33.15
2024-01-22T11:57:37.841Z,33.17
2024-01-22T11:59:40.561Z,33.09
2024-01-22T12:01:45.119Z,33.00
2024-01-22T12:03:47.317Z,33.02
2024-01-22T12:05:49.106Z,32.92
2024-01-22T12:07:53.238Z,33.26
2024-01-22T12:09:55.134Z,33.01
2024-01-22T12:11:56.946Z,33.04
2024-01-22T12:14:00.771Z,32.99
2024-01-22T12:16:02.460Z,33.10
2024-01-22T12:18:04.824Z,33.00
2024-01-22T12:20:07.588Z,32.99
2024-01-22T12:22:09.625Z,33.01
2024-01-22T12:24:15.916Z,32.90
2024-01-22T12:26:22.447Z,32.67
2024-01-22T12:28:24.937Z,32.81
2024-01-22T12:30:26.763Z,32.89
2024-01-22T12:32:28.739Z,32.76
2024-01-22T12:34:31.905Z,32.82
2024-01-22T12:38:58.033Z,32.61
2024-01-22T12:41:09.333Z,32.64
2024-01-22T12:43:11.671Z,32.69
2024-01-22T12:45:21.321Z,32.69
2024-01-22T12:47:23.285Z,32.61
2024-01-22T12:49:25.091Z,32.69
2024-01-22T12:51:27.848Z,32.72
2024-01-22T12:53:33.003Z,32.48
2024-01-22T12:55:36.000Z,32.44
2024-01-22T12:57:38.377Z,32.41
2024-01-22T12:59:41.380Z,32.50
2024-01-22T13:01:43.159Z,32.37
2024-01-22T13:03:44.929Z,32.12
2024-01-22T13:05:47.726Z,32.10
2024-01-22T13:07:49.364Z,32.35
2024-01-22T13:09:50.969Z,32.21
2024-01-22T13:11:54.624Z,32.12
2024-01-22T13:13:56.314Z,32.21
2024-01-22T13:16:11.795Z,32.06
2024-01-22T13:18:17.358Z,32.00
2024-01-22T13:20:19.136Z,31.91
2024-01-22T13:22:22.917Z,31.92
2024-01-22T13:24:24.813Z,31.88
2024-01-22T13:26:26.512Z,31.82
2024-01-22T13:28:28.957Z,31.76
2024-01-22T13:30:30.672Z,31.74
2024-01-22T13:32:32.275Z,31.82
2024-01-22T13:34:34.859Z,31.70
2024-01-22T13:36:37.198Z,31.71
2024-01-22T13:38:42.622Z,31.71
2024-01-22T13:40:44.976Z,31.62
2024-01-22T13:42:46.605Z,31.85
2024-01-22T13:44:51.956Z,31.67
2024-01-22T13:46:53.769Z,31.55
2024-01-22T13:48:55.518Z,31.69
2024-01-22T13:50:58.179Z,31.40
2024-01-22T13:53:02.630Z,31.21
2024-01-22T13:55:07.568Z,31.49
2024-01-22T13:57:09.274Z,31.57
2024-01-22T13:59:12.543Z,31.45
2024-01-22T14:01:14.301Z,31.61
2024-01-22T14:03:17.104Z,31.54
2024-01-22T14:05:19.203Z,31.38
2024-01-22T14:07:20.803Z,31.40
2024-01-22T14:09:22.405Z,31.39
2024-01-22T14:11:25.032Z,31.57
2024-01-22T14:13:27.850Z,31.30
2024-01-22T14:15:29.507Z,31.43
2024-01-22T14:17:31.373Z,31.12
2024-01-22T14:19:33.476Z,31.37
2024-01-22T14:21:35.705Z,31.28
2024-01-22T14:23:37.459Z,31.26
2024-01-22T14:25:40.272Z,31.31
2024-01-22T14:27:42.126Z,31.15
2024-01-22T14:29:44.067Z,31.16
2024-01-22T14:31:45.968Z,31.14
2024-01-22T14:33:49.485Z,30.94
2024-01-22T14:35:52.484Z,31.03
2024-01-22T14:37:54.216Z,30.94
2024-01-22T14:39:56.002Z,31.09
2024-01-22T14:41:57.931Z,30.88
2024-01-22T14:43:59.542Z,30.97
2024-01-22T14:46:01.170Z,31.02
2024-01-22T14:48:02.909Z,30.79
2024-01-22T14:50:05.154Z,30.78
2024-01-22T14:54:13.671Z,30.79
2024-01-22T14:56:15.981Z,30.84
2024-01-22T14:58:17.595Z,30.67
2024-01-22T15:00:20.327Z,30.83
2024-01-22T15:02:22.897Z,30.65
2024-01-22T15:06:31.312Z,30.81
2024-01-22T15:08:33.038Z,30.70
2024-01-22T15:10:36.622Z,30.68
2024-01-22T15:12:39.478Z,30.83
2024-01-22T15:14:41.093Z,30.80
2024-01-22T15:16:43.276Z,30.72
2024-01-22T15:18:45.024Z,30.71
2024-01-22T15:20:47.764Z,30.88
2024-01-22T15:22:50.004Z,30.73
2024-01-22T15:26:58.562Z,30.87
2024-01-22T15:29:02.089Z,30.95
2024-01-22T15:31:04.560Z,30.94
2024-01-22T15:33:06.584Z,30.87
2024-01-22T15:35:09.117Z,31.04
2024-01-22T15:37:12.205Z,30.89
2024-01-22T15:41:20.542Z,30.78
2024-01-22T15:43:22.259Z,30.97
2024-01-22T15:45:24.488Z,30.75
2024-01-22T15:47:26.386Z,30.74
2024-01-22T15:49:29.893Z,30.73
2024-01-22T15:51:31.831Z,30.71
2024-01-22T15:53:33.425Z,30.46
2024-01-22T15:55:35.129Z,30.55
2024-01-22T15:57:37.056Z,30.45
2024-01-22T15:59:38.678Z,30.40
2024-01-22T16:03:46.864Z,30.41
2024-01-22T16:05:49.094Z,30.40
2024-01-22T16:07:51.168Z,30.21
2024-01-22T16:09:53.060Z,30.06
2024-01-22T16:11:55.073Z,30.22
2024-01-22T16:18:09.777Z,30.34
2024-01-22T16:20:15.125Z,29.93
2024-01-22T16:22:17.347Z,30.01
2024-01-22T16:24:19.099Z,29.98
2024-01-22T16:30:41.898Z,29.78
2024-01-22T16:32:44.797Z,29.79
2024-01-22T16:34:46.545Z,29.83
2024-01-22T16:36:49.749Z,29.71
2024-01-22T16:38:51.413Z,29.71
2024-01-22T16:40:53.250Z,29.59
2024-01-22T16:42:54.955Z,29.69
2024-01-22T16:44:56.559Z,29.50
2024-01-22T16:46:59.237Z,29.60
2024-01-22T16:49:04.769Z,29.39
2024-01-22T16:55:19.909Z,29.48
2024-01-22T16:57:21.596Z,29.46
2024-01-22T16:59:23.381Z,29.48
2024-01-22T17:01:25.622Z,29.57
2024-01-22T17:07:40.643Z,29.64
2024-01-22T17:09:42.331Z,29.65
2024-01-22T17:11:45.197Z,29.72
2024-01-22T17:13:47.006Z,29.64
2024-01-22T17:15:49.243Z,29.48
2024-01-22T17:17:52.511Z,29.68
2024-01-22T17:19:54.926Z,29.51
2024-01-22T17:21:56.703Z,29.61
2024-01-22T17:23:58.381Z,29.63
2024-01-22T17:26:00.728Z,29.71
2024-01-22T17:28:02.609Z,29.74
2024-01-22T17:30:05.026Z,29.70
2024-01-22T17:32:07.952Z,29.99
2024-01-22T17:34:09.736Z,29.64
2024-01-22T17:36:12.565Z,29.45
2024-01-22T17:38:14.294Z,29.65
2024-01-22T17:40:16.307Z,29.52
2024-01-22T17:42:18.085Z,29.85
2024-01-22T17:44:19.846Z,29.56
2024-01-22T17:46:21.796Z,29.62
2024-01-22T17:48:23.489Z,29.38
2024-01-22T17:50:25.265Z,29.40
2024-01-22T17:52:27.399Z,29.41
2024-01-22T17:54:29.093Z,29.45
2024-01-22T17:56:30.769Z,29.31
2024-01-22T17:58:32.728Z,29.36
2024-01-22T18:02:40.874Z,29.31
2024-01-22T18:04:42.476Z,29.36
2024-01-22T18:06:44.204Z,29.25
2024-01-22T18:08:45.979Z,29.42
2024-01-22T18:10:49.561Z,29.42
2024-01-22T18:12:51.147Z,29.40
2024-01-22T18:14:52.843Z,29.56
2024-01-22T18:19:01.080Z,29.49
2024-01-22T18:21:02.831Z,29.42
2024-01-22T18:23:04.541Z,29.47
2024-01-22T18:25:06.736Z,29.48
2024-01-22T18:27:08.393Z,29.42
2024-01-22T18:31:17.254Z,29.44
2024-01-22T18:33:18.999Z,29.36
2024-01-22T18:35:20.768Z,29.55
2024-01-22T18:37:24.604Z,29.33
2024-01-22T18:39:26.200Z,29.54
2024-01-22T18:41:28.961Z,29.45
2024-01-22T18:43:30.962Z,29.49
2024-01-22T18:45:33.315Z,29.48
2024-01-22T18:47:35.048Z,29.68
2024-01-22T18:49:39.788Z,29.52
2024-01-22T18:51:41.486Z,29.48
2024-01-22T18:53:43.026Z,29.44
2024-01-22T18:55:44.640Z,29.29
2024-01-22T18:57:46.345Z,29.37
2024-01-22T18:59:49.285Z,29.31
2024-01-22T19:01:50.997Z,29.24
2024-01-22T19:03:52.769Z,29.39
2024-01-22T19:05:54.461Z,29.53
2024-01-22T19:07:56.106Z,29.35
2024-01-22T19:09:57.726Z,29.41
2024-01-22T19:11:59.470Z,29.29
2024-01-22T19:14:02.265Z,29.56
2024-01-22T19:16:04.096Z,29.49
2024-01-22T19:18:05.849Z,29.31
2024-01-22T19:20:09.845Z,29.27
2024-01-22T19:22:11.638Z,29.31
2024-01-22T19:24:13.351Z,29.33
2024-01-22T19:26:15.178Z,29.29
2024-01-22T19:28:16.806Z,29.34
2024-01-22T19:30:18.542Z,29.47
2024-01-22T19:32:20.329Z,29.36
2024-01-22T19:34:21.962Z,29.21
2024-01-22T19:36:23.650Z,29.33
2024-01-22T19:38:25.245Z,29.46
2024-01-22T19:40:26.864Z,29.37
2024-01-22T19:42:28.718Z,29.25
2024-01-22T19:44:30.369Z,29.22
2024-01-22T19:46:32.023Z,29.25
2024-01-22T19:48:36.211Z,29.36
2024-01-22T19:50:38.049Z,29.35
2024-01-22T19:52:39.753Z,29.34
2024-01-22T19:54:41.437Z,29.37
2024-01-22T19:56:45.909Z,29.20
2024-01-22T19:58:47.703Z,29.16
2024-01-22T20:00:49.447Z,29.22
2024-01-22T20:02:51.309Z,29.12
2024-01-22T20:04:53.025Z,29.27
2024-01-22T20:06:55.379Z,29.21
2024-01-22T20:08:57.604Z,29.39
2024-01-22T20:10:59.224Z,29.35
2024-01-22T20:13:01.116Z,29.34
2024-01-22T20:15:02.792Z,29.43
2024-01-22T20:17:04.530Z,29.35
2024-01-22T20:19:06.225Z,29.41
2024-01-22T20:21:07.890Z,29.47
2024-01-22T20:25:16.275Z,29.33
2024-01-22T20:27:19.016Z,29.54
2024-01-22T20:29:22.466Z,29.23
2024-01-22T20:31:25.828Z,29.32
2024-01-22T20:33:27.569Z,29.70
2024-01-22T20:35:29.605Z,29.14
2024-01-22T20:37:33.857Z,29.35
2024-01-22T20:39:35.645Z,29.40
2024-01-22T20:41:43.355Z,29.27
2024-01-22T20:43:45.049Z,29.34
2024-01-22T20:45:47.253Z,29.47
2024-01-22T20:47:53.627Z,29.30
2024-01-22T20:49:55.474Z,29.24
2024-01-22T20:51:57.205Z,29.37
2024-01-22T20:53:59.448Z,29.09
2024-01-22T20:56:01.364Z,29.25
2024-01-22T20:58:04.821Z,29.08
2024-01-22T21:00:09.921Z,29.37
2024-01-22T21:02:12.615Z,29.37
2024-01-22T21:04:15.375Z,29.60
2024-01-22T21:06:17.509Z,29.46
2024-01-22T21:08:19.560Z,29.49
2024-01-22T21:10:21.578Z,29.33
2024-01-22T21:12:23.238Z,29.19
2024-01-22T21:14:25.063Z,29.50
2024-01-22T21:16:30.236Z,29.18
2024-01-22T21:18:32.811Z,29.43
2024-01-22T21:20:34.514Z,29.46
2024-01-22T21:22:37.396Z,29.44
2024-01-22T21:24:39.171Z,29.27
2024-01-22T21:26:40.852Z,29.49
2024-01-22T21:28:43.153Z,29.33
2024-01-22T21:30:44.819Z,29.48
2024-01-22T21:32:46.602Z,29.51
2024-01-22T21:34:51.128Z,29.46
2024-01-22T21:36:52.811Z,29.33
2024-01-22T21:39:01.276Z,29.23
2024-01-22T21:41:03.368Z,29.43
2024-01-22T21:43:06.557Z,29.31
2024-01-22T21:45:08.720Z,29.43
2024-01-22T21:47:10.396Z,29.32
2024-01-22T21:49:16.907Z,29.33
2024-01-22T21:51:18.665Z,29.40
2024-01-22T21:53:20.405Z,29.46
2024-01-22T21:55:22.563Z,29.17
2024-01-22T21:57:24.388Z,29.34
2024-01-22T21:59:26.134Z,29.11
2024-01-22T22:01:31.431Z,29.25
2024-01-22T22:03:36.585Z,29.51
2024-01-22T22:05:39.194Z,29.39
2024-01-22T22:07:42.680Z,29.26
2024-01-22T22:09:45.237Z,29.26
2024-01-22T22:11:47.049Z,29.32
2024-01-22T22:13:49.384Z,29.22
2024-01-22T22:15:51.275Z,29.20
2024-01-22T22:17:53.889Z,29.40
2024-01-22T22:19:55.971Z,29.40
2024-01-22T22:21:57.560Z,29.30
2024-01-22T22:24:00.923Z,29.06
2024-01-22T22:26:02.872Z,29.36
2024-01-22T22:28:05.128Z,29.11
2024-01-22T22:30:08.605Z,29.07
2024-01-22T22:32:10.230Z,29.17
2024-01-22T22:34:12.049Z,29.12
2024-01-22T22:36:17.194Z,29.41
2024-01-22T22:38:19.504Z,29.23
2024-01-22T22:40:22.408Z,29.34
2024-01-22T22:42:24.087Z,29.19
2024-01-22T22:44:25.764Z,29.35
2024-01-22T22:46:33.053Z,29.18
2024-01-22T22:48:35.153Z,29.13
2024-01-22T22:50:36.808Z,29.10
2024-01-22T22:52:38.651Z,29.17
2024-01-22T22:54:41.700Z,29.10
2024-01-22T22:56:44.008Z,29.21
2024-01-22T22:58:48.687Z,29.19
2024-01-22T23:00:53.633Z,29.08
2024-01-22T23:02:56.049Z,29.17
2024-01-22T23:04:58.027Z,29.16
2024-01-22T23:06:59.661Z,29.39
2024-01-22T23:09:01.297Z,29.09
2024-01-22T23:11:03.507Z,29.07
2024-01-22T23:13:05.098Z,29.16
2024-01-22T23:15:07.129Z,29.02
2024-01-22T23:17:12.090Z,29.05
2024-01-22T23:19:13.852Z,29.25
2024-01-22T23:21:15.819Z,29.11
2024-01-22T23:23:18.315Z,29.12
2024-01-22T23:25:20.058Z,29.12
2024-01-22T23:27:23.896Z,29.02
2024-01-22T23:29:26.017Z,29.23
2024-01-22T23:31:27.678Z,29.19
2024-01-22T23:33:31.247Z,29.31
2024-01-22T23:35:34.942Z,29.09
2024-01-22T23:37:36.725Z,29.41
2024-01-22T23:39:38.360Z,29.11
2024-01-22T23:41:41.524Z,29.07
2024-01-22T23:43:43.386Z,29.01
2024-01-22T23:45:46.020Z,29.09
2024-01-22T23:47:47.841Z,29.27
2024-01-22T23:49:52.704Z,29.05
2024-01-22T23:51:54.545Z,29.12
2024-01-22T23:53:56.182Z,29.12
2024-01-22T23:55:58.513Z,29.12
2024-01-22T23:58:00.181Z,29.04
